This is the latest recevied weather packets stored in our database for station/object K5JLG-10. If no packets are shown the sender has not sent any weather packets the latest 10 day(s).
| Time | Temp. | Humidity | Pressure | Rain* | Wind** | Luminosity | Snow |
|---|---|---|---|---|---|---|---|
| 1778042838 | 17.22° C | 80% | 1009.5 hPa | 0 mm | - | - | - |
| 1778039837 | 18.33° C | 79% | 1008.9 hPa | 0 mm | - | - | - |
| 1778039237 | 18.89° C | 79% | 1008.8 hPa | 0 mm | - | - | - |
| 1778036837 | 20° C | 78% | 1008.1 hPa | 0 mm | - | - | - |
| 1778036237 | 20.56° C | 78% | 1008 hPa | 0 mm | - | - | - |
| 1778035057 | 21.11° C | 77% | 1007.7 hPa | 0 mm | - | - | - |
| 1778032657 | 21.67° C | 75% | 1006.4 hPa | 0 mm | - | - | - |
| 1778024236 | 27.22° C | 65% | 1004.5 hPa | 0 mm | - | - | - |
| 1778023057 | 28.89° C | 63% | 1004.4 hPa | 0 mm | - | - | - |
| 1778022436 | 28.89° C | 61% | 1004.1 hPa | 0 mm | - | - | - |
| 1778015836 | 33.33° C | 54% | 1003.6 hPa | 0 mm | - | - | - |
| 1778014636 | 33.33° C | 55% | 1003.8 hPa | 0 mm | - | - | - |
| 1778013436 | 33.33° C | 56% | 1004 hPa | 0 mm | - | - | - |
| 1778012236 | 33.33° C | 57% | 1004.2 hPa | 0 mm | - | - | - |
| 1778011636 | 33.33° C | 59% | 1004.3 hPa | 0 mm | - | - | - |
| 1778010436 | 32.22° C | 60% | 1004.5 hPa | 0 mm | - | - | - |
| 1778009236 | 31.67° C | 62% | 1004.5 hPa | 0 mm | - | - | - |
| 1778008036 | 31.11° C | 65% | 1004.4 hPa | 0 mm | - | - | - |
| 1778005077 | 30° C | 67% | 1004.7 hPa | 0 mm | - | - | - |
| 1778003837 | 30° C | 66% | 1004.9 hPa | 0 mm | - | - | - |
| 1778002636 | 29.44° C | 69% | 1004.8 hPa | 0 mm | - | - | - |
| 1778000236 | 28.33° C | 72% | 1004.9 hPa | 0 mm | - | - | - |
| 1777997856 | 27.22° C | 74% | 1004.7 hPa | 0 mm | - | - | - |
| 1777994256 | 25.56° C | 79% | 1004.6 hPa | 0 mm | - | - | - |
| 1777992436 | 24.44° C | 82% | 1004.6 hPa | 0 mm | - | - | - |
* Rain latest hour (hover to see other rain measurements)
** Current wind speed in m/s (hover to see current wind gust speed)